sensor_id;sensor_type;location;lat;lon;timestamp;pressure;altitude;pressure_sealevel;temperature;humidity
49843;BME280;55559;48.898;9.184;2023-05-08T00:02:06;98713.06;;;14.19;100.00
49843;BME280;55559;48.898;9.184;2023-05-08T00:04:33;98715.75;;;14.19;100.00
49843;BME280;55559;48.898;9.184;2023-05-08T00:07:01;98709.38;;;14.20;100.00
49843;BME280;55559;48.898;9.184;2023-05-08T00:09:30;98718.72;;;14.16;100.00
49843;BME280;55559;48.898;9.184;2023-05-08T00:11:59;98706.72;;;14.20;100.00
49843;BME280;55559;48.898;9.184;2023-05-08T00:14:26;98714.06;;;14.18;100.00
49843;BME280;55559;48.898;9.184;2023-05-08T00:16:53;98711.16;;;14.29;100.00
49843;BME280;55559;48.898;9.184;2023-05-08T00:19:21;98700.16;;;14.32;100.00
49843;BME280;55559;48.898;9.184;2023-05-08T00:21:51;98710.31;;;14.28;100.00
49843;BME280;55559;48.898;9.184;2023-05-08T00:24:18;98708.47;;;14.29;100.00
49843;BME280;55559;48.898;9.184;2023-05-08T00:26:46;98713.28;;;14.25;100.00
49843;BME280;55559;48.898;9.184;2023-05-08T00:29:15;98706.94;;;14.26;100.00
49843;BME280;55559;48.898;9.184;2023-05-08T00:31:42;98708.78;;;14.26;100.00
49843;BME280;55559;48.898;9.184;2023-05-08T00:34:12;98714.13;;;14.26;100.00
49843;BME280;55559;48.898;9.184;2023-05-08T00:36:39;98710.09;;;14.22;100.00
49843;BME280;55559;48.898;9.184;2023-05-08T00:39:09;98713.59;;;14.22;100.00
49843;BME280;55559;48.898;9.184;2023-05-08T00:41:37;98707.22;;;14.23;100.00
49843;BME280;55559;48.898;9.184;2023-05-08T00:44:04;98711.44;;;14.26;100.00
49843;BME280;55559;48.898;9.184;2023-05-08T00:46:34;98704.41;;;14.25;100.00
49843;BME280;55559;48.898;9.184;2023-05-08T00:49:04;98708.63;;;14.27;100.00
49843;BME280;55559;48.898;9.184;2023-05-08T00:51:32;98717.47;;;14.28;100.00
49843;BME280;55559;48.898;9.184;2023-05-08T00:53:59;98718.88;;;14.32;100.00
49843;BME280;55559;48.898;9.184;2023-05-08T00:56:28;98715.47;;;14.30;100.00
49843;BME280;55559;48.898;9.184;2023-05-08T00:58:59;98721.69;;;14.30;100.00
49843;BME280;55559;48.898;9.184;2023-05-08T01:01:27;98724.16;;;14.24;100.00
49843;BME280;55559;48.898;9.184;2023-05-08T01:03:56;98723.28;;;14.23;100.00
49843;BME280;55559;48.898;9.184;2023-05-08T01:06:23;98722.81;;;14.28;100.00
49843;BME280;55559;48.898;9.184;2023-05-08T01:08:52;98732.09;;;14.33;100.00
49843;BME280;55559;48.898;9.184;2023-05-08T01:11:24;98726.91;;;14.32;100.00
49843;BME280;55559;48.898;9.184;2023-05-08T01:14:08;98721.53;;;14.32;100.00
49843;BME280;55559;48.898;9.184;2023-05-08T01:16:42;98730.69;;;14.29;100.00
49843;BME280;55559;48.898;9.184;2023-05-08T01:19:40;98731.38;;;14.31;100.00
49843;BME280;55559;48.898;9.184;2023-05-08T01:22:19;98731.72;;;14.28;100.00
49843;BME280;55559;48.898;9.184;2023-05-08T01:25:12;98728.84;;;14.30;100.00
49843;BME280;55559;48.898;9.184;2023-05-08T01:28:05;98733.69;;;14.26;100.00
49843;BME280;55559;48.898;9.184;2023-05-08T01:30:54;98735.53;;;14.26;100.00
49843;BME280;55559;48.898;9.184;2023-05-08T01:33:32;98727.34;;;14.27;100.00
49843;BME280;55559;48.898;9.184;2023-05-08T01:36:16;98741.25;;;14.31;100.00
49843;BME280;55559;48.898;9.184;2023-05-08T01:38:52;98737.22;;;14.27;100.00
49843;BME280;55559;48.898;9.184;2023-05-08T01:41:25;98736.84;;;14.22;100.00
49843;BME280;55559;48.898;9.184;2023-05-08T01:44:04;98752.03;;;14.21;100.00
49843;BME280;55559;48.898;9.184;2023-05-08T01:46:32;98748.44;;;14.30;100.00
49843;BME280;55559;48.898;9.184;2023-05-08T01:49:05;98758.06;;;14.23;100.00
49843;BME280;55559;48.898;9.184;2023-05-08T01:51:42;98760.28;;;14.28;100.00
49843;BME280;55559;48.898;9.184;2023-05-08T01:54:14;98755.59;;;14.30;100.00
49843;BME280;55559;48.898;9.184;2023-05-08T01:56:43;98758.91;;;14.24;100.00
49843;BME280;55559;48.898;9.184;2023-05-08T01:59:16;98756.38;;;14.22;100.00
49843;BME280;55559;48.898;9.184;2023-05-08T02:01:47;98752.09;;;14.29;100.00
49843;BME280;55559;48.898;9.184;2023-05-08T02:04:17;98754.56;;;14.23;100.00
49843;BME280;55559;48.898;9.184;2023-05-08T02:06:46;98755.94;;;14.27;100.00
49843;BME280;55559;48.898;9.184;2023-05-08T02:09:15;98758.75;;;14.25;100.00
49843;BME280;55559;48.898;9.184;2023-05-08T02:11:44;98763.59;;;14.22;100.00
49843;BME280;55559;48.898;9.184;2023-05-08T02:14:18;98770.75;;;14.21;100.00
49843;BME280;55559;48.898;9.184;2023-05-08T02:16:49;98762.19;;;14.18;100.00
49843;BME280;55559;48.898;9.184;2023-05-08T02:19:21;98760.72;;;14.23;100.00
49843;BME280;55559;48.898;9.184;2023-05-08T02:21:51;98756.84;;;14.18;100.00
49843;BME280;55559;48.898;9.184;2023-05-08T02:24:19;98753.34;;;14.17;100.00
49843;BME280;55559;48.898;9.184;2023-05-08T02:26:51;98760.81;;;14.13;100.00
49843;BME280;55559;48.898;9.184;2023-05-08T02:29:21;98756.84;;;14.18;100.00
49843;BME280;55559;48.898;9.184;2023-05-08T02:31:51;98759.28;;;14.11;100.00
49843;BME280;55559;48.898;9.184;2023-05-08T02:34:23;98763.84;;;14.01;100.00
49843;BME280;55559;48.898;9.184;2023-05-08T02:36:59;98763.19;;;13.99;100.00
49843;BME280;55559;48.898;9.184;2023-05-08T02:39:30;98772.56;;;14.03;100.00
49843;BME280;55559;48.898;9.184;2023-05-08T02:41:59;98774.09;;;14.05;100.00
49843;BME280;55559;48.898;9.184;2023-05-08T02:44:28;98771.59;;;14.04;100.00
49843;BME280;55559;48.898;9.184;2023-05-08T02:46:59;98770.44;;;14.06;100.00
49843;BME280;55559;48.898;9.184;2023-05-08T02:49:32;98772.41;;;14.04;100.00
49843;BME280;55559;48.898;9.184;2023-05-08T02:52:07;98777.75;;;14.04;100.00
49843;BME280;55559;48.898;9.184;2023-05-08T02:54:41;98765.41;;;14.03;100.00
49843;BME280;55559;48.898;9.184;2023-05-08T02:57:20;98769.16;;;14.10;100.00
49843;BME280;55559;48.898;9.184;2023-05-08T02:59:56;98773.97;;;14.07;100.00
49843;BME280;55559;48.898;9.184;2023-05-08T03:02:34;98773.81;;;14.08;100.00
49843;BME280;55559;48.898;9.184;2023-05-08T03:05:12;98773.97;;;14.07;100.00
49843;BME280;55559;48.898;9.184;2023-05-08T03:07:51;98771.97;;;14.09;100.00
49843;BME280;55559;48.898;9.184;2023-05-08T03:10:22;98770.66;;;14.13;100.00
49843;BME280;55559;48.898;9.184;2023-05-08T03:12:52;98771.22;;;14.17;100.00
49843;BME280;55559;48.898;9.184;2023-05-08T03:15:25;98777.25;;;14.19;100.00
49843;BME280;55559;48.898;9.184;2023-05-08T03:17:56;98771.38;;;14.15;100.00
49843;BME280;55559;48.898;9.184;2023-05-08T03:20:31;98767.00;;;14.14;100.00
49843;BME280;55559;48.898;9.184;2023-05-08T03:23:01;98765.06;;;14.06;100.00
49843;BME280;55559;48.898;9.184;2023-05-08T03:25:30;98773.47;;;14.11;100.00
49843;BME280;55559;48.898;9.184;2023-05-08T03:28:03;98771.00;;;14.10;100.00
49843;BME280;55559;48.898;9.184;2023-05-08T03:30:36;98767.59;;;14.08;100.00
49843;BME280;55559;48.898;9.184;2023-05-08T03:33:08;98773.34;;;14.13;100.00
49843;BME280;55559;48.898;9.184;2023-05-08T03:35:44;98766.63;;;14.09;100.00
49843;BME280;55559;48.898;9.184;2023-05-08T03:38:18;98760.97;;;14.12;100.00
49843;BME280;55559;48.898;9.184;2023-05-08T03:40:48;98763.50;;;14.13;100.00
49843;BME280;55559;48.898;9.184;2023-05-08T03:43:17;98759.81;;;14.14;100.00
49843;BME280;55559;48.898;9.184;2023-05-08T03:45:47;98771.72;;;14.02;100.00
49843;BME280;55559;48.898;9.184;2023-05-08T03:48:15;98772.56;;;14.03;100.00
49843;BME280;55559;48.898;9.184;2023-05-08T03:50:46;98765.41;;;14.03;100.00
49843;BME280;55559;48.898;9.184;2023-05-08T03:53:13;98770.13;;;14.09;100.00
49843;BME280;55559;48.898;9.184;2023-05-08T03:55:41;98762.09;;;14.09;100.00
49843;BME280;55559;48.898;9.184;2023-05-08T03:58:25;98767.84;;;14.14;100.00
49843;BME280;55559;48.898;9.184;2023-05-08T04:01:01;98768.00;;;14.13;100.00
49843;BME280;55559;48.898;9.184;2023-05-08T04:03:42;98776.50;;;14.08;100.00
49843;BME280;55559;48.898;9.184;2023-05-08T04:06:19;98771.00;;;14.10;100.00
49843;BME280;55559;48.898;9.184;2023-05-08T04:08:57;98771.13;;;14.08;100.00
49843;BME280;55559;48.898;9.184;2023-05-08T04:11:31;98771.66;;;14.12;100.00
49843;BME280;55559;48.898;9.184;2023-05-08T04:14:03;98767.75;;;14.06;100.00
49843;BME280;55559;48.898;9.184;2023-05-08T04:16:37;98776.34;;;14.10;100.00
49843;BME280;55559;48.898;9.184;2023-05-08T04:19:09;98775.63;;;14.08;100.00
49843;BME280;55559;48.898;9.184;2023-05-08T04:21:42;98779.84;;;14.10;100.00
49843;BME280;55559;48.898;9.184;2023-05-08T04:24:12;98783.06;;;14.14;100.00
49843;BME280;55559;48.898;9.184;2023-05-08T04:26:43;98781.84;;;14.08;100.00
49843;BME280;55559;48.898;9.184;2023-05-08T04:29:13;98786.03;;;14.11;100.00
49843;BME280;55559;48.898;9.184;2023-05-08T04:31:41;98794.13;;;14.19;100.00
49843;BME280;55559;48.898;9.184;2023-05-08T04:34:09;98790.00;;;14.25;100.00
49843;BME280;55559;48.898;9.184;2023-05-08T04:36:37;98790.38;;;14.30;100.00
49843;BME280;55559;48.898;9.184;2023-05-08T04:39:08;98789.41;;;14.31;100.00
49843;BME280;55559;48.898;9.184;2023-05-08T04:41:36;98782.13;;;14.23;100.00
49843;BME280;55559;48.898;9.184;2023-05-08T04:44:04;98785.66;;;14.24;100.00
49843;BME280;55559;48.898;9.184;2023-05-08T04:46:34;98785.03;;;14.30;100.00
49843;BME280;55559;48.898;9.184;2023-05-08T04:49:01;98798.09;;;14.33;100.00
49843;BME280;55559;48.898;9.184;2023-05-08T04:51:30;98795.72;;;14.30;100.00
49843;BME280;55559;48.898;9.184;2023-05-08T04:53:58;98793.44;;;14.35;100.00
49843;BME280;55559;48.898;9.184;2023-05-08T04:56:28;98795.72;;;14.30;100.00
49843;BME280;55559;48.898;9.184;2023-05-08T04:58:56;98802.63;;;14.32;100.00
49843;BME280;55559;48.898;9.184;2023-05-08T05:01:24;98803.31;;;14.35;100.00
49843;BME280;55559;48.898;9.184;2023-05-08T05:03:55;98802.47;;;14.34;100.00
49843;BME280;55559;48.898;9.184;2023-05-08T05:06:23;98803.75;;;14.30;100.00
49843;BME280;55559;48.898;9.184;2023-05-08T05:08:52;98812.97;;;14.45;100.00
49843;BME280;55559;48.898;9.184;2023-05-08T05:11:20;98808.91;;;14.41;100.00
49843;BME280;55559;48.898;9.184;2023-05-08T05:13:50;98811.72;;;14.40;100.00
49843;BME280;55559;48.898;9.184;2023-05-08T05:16:17;98815.56;;;14.37;100.00
49843;BME280;55559;48.898;9.184;2023-05-08T05:18:45;98816.31;;;14.47;100.00
49843;BME280;55559;48.898;9.184;2023-05-08T05:21:14;98814.84;;;14.35;100.00
49843;BME280;55559;48.898;9.184;2023-05-08T05:23:42;98809.91;;;14.40;100.00
49843;BME280;55559;48.898;9.184;2023-05-08T05:26:10;98820.66;;;14.48;100.00
49843;BME280;55559;48.898;9.184;2023-05-08T05:28:38;98821.91;;;14.54;100.00
49843;BME280;55559;48.898;9.184;2023-05-08T05:31:07;98816.13;;;14.59;100.00
49843;BME280;55559;48.898;9.184;2023-05-08T05:33:36;98825.94;;;14.58;100.00
49843;BME280;55559;48.898;9.184;2023-05-08T05:36:04;98821.88;;;14.64;100.00
49843;BME280;55559;48.898;9.184;2023-05-08T05:38:34;98827.94;;;14.56;100.00
49843;BME280;55559;48.898;9.184;2023-05-08T05:41:01;98825.09;;;14.58;100.00
49843;BME280;55559;48.898;9.184;2023-05-08T05:43:29;98821.53;;;14.67;100.00
49843;BME280;55559;48.898;9.184;2023-05-08T05:46:02;98827.44;;;14.71;100.00
49843;BME280;55559;48.898;9.184;2023-05-08T05:48:34;98829.09;;;14.72;100.00
49843;BME280;55559;48.898;9.184;2023-05-08T05:51:02;98827.63;;;14.77;100.00
49843;BME280;55559;48.898;9.184;2023-05-08T05:53:30;98825.53;;;14.81;100.00
49843;BME280;55559;48.898;9.184;2023-05-08T05:55:57;98818.31;;;14.81;100.00
49843;BME280;55559;48.898;9.184;2023-05-08T05:58:25;98823.97;;;14.78;100.00
49843;BME280;55559;48.898;9.184;2023-05-08T06:00:53;98832.38;;;14.83;100.00
49843;BME280;55559;48.898;9.184;2023-05-08T06:03:22;98828.94;;;14.73;100.00
49843;BME280;55559;48.898;9.184;2023-05-08T06:05:51;98831.03;;;14.79;100.00
49843;BME280;55559;48.898;9.184;2023-05-08T06:08:19;98834.38;;;14.81;100.00
49843;BME280;55559;48.898;9.184;2023-05-08T06:10:46;98828.41;;;14.87;100.00
49843;BME280;55559;48.898;9.184;2023-05-08T06:13:13;98832.16;;;14.77;100.00
49843;BME280;55559;48.898;9.184;2023-05-08T06:15:41;98835.53;;;14.61;100.00
49843;BME280;55559;48.898;9.184;2023-05-08T06:18:10;98836.06;;;14.64;100.00
49843;BME280;55559;48.898;9.184;2023-05-08T06:20:38;98843.31;;;14.72;100.00
49843;BME280;55559;48.898;9.184;2023-05-08T06:23:07;98837.28;;;14.70;100.00
49843;BME280;55559;48.898;9.184;2023-05-08T06:25:34;98835.25;;;14.64;100.00
49843;BME280;55559;48.898;9.184;2023-05-08T06:28:02;98834.38;;;14.63;100.00
49843;BME280;55559;48.898;9.184;2023-05-08T06:30:31;98830.56;;;14.66;100.00
49843;BME280;55559;48.898;9.184;2023-05-08T06:32:58;98838.31;;;14.69;100.00
49843;BME280;55559;48.898;9.184;2023-05-08T06:35:26;98838.34;;;14.77;100.00
49843;BME280;55559;48.898;9.184;2023-05-08T06:37:53;98837.97;;;14.72;100.00
49843;BME280;55559;48.898;9.184;2023-05-08T06:40:22;98842.72;;;14.78;100.00
49843;BME280;55559;48.898;9.184;2023-05-08T06:42:51;98845.00;;;14.73;100.00
49843;BME280;55559;48.898;9.184;2023-05-08T06:45:19;98839.66;;;14.73;100.00
49843;BME280;55559;48.898;9.184;2023-05-08T06:47:47;98838.56;;;14.84;100.00
49843;BME280;55559;48.898;9.184;2023-05-08T06:50:15;98829.72;;;14.83;100.00
49843;BME280;55559;48.898;9.184;2023-05-08T06:52:42;98840.41;;;14.83;100.00
49843;BME280;55559;48.898;9.184;2023-05-08T06:55:10;98841.44;;;14.82;100.00
49843;BME280;55559;48.898;9.184;2023-05-08T06:57:39;98841.63;;;14.89;100.00
49843;BME280;55559;48.898;9.184;2023-05-08T07:00:08;98832.53;;;15.00;100.00
49843;BME280;55559;48.898;9.184;2023-05-08T07:02:36;98836.72;;;15.02;100.00
49843;BME280;55559;48.898;9.184;2023-05-08T07:05:04;98834.38;;;14.99;100.00
49843;BME280;55559;48.898;9.184;2023-05-08T07:07:32;98836.56;;;15.04;100.00
49843;BME280;55559;48.898;9.184;2023-05-08T07:10:00;98838.84;;;14.99;100.00
49843;BME280;55559;48.898;9.184;2023-05-08T07:12:27;98837.25;;;15.06;100.00
49843;BME280;55559;48.898;9.184;2023-05-08T07:14:56;98834.69;;;15.22;100.00
49843;BME280;55559;48.898;9.184;2023-05-08T07:17:23;98842.25;;;15.27;100.00
49843;BME280;55559;48.898;9.184;2023-05-08T07:19:51;98840.69;;;15.16;100.00
49843;BME280;55559;48.898;9.184;2023-05-08T07:22:20;98833.47;;;15.17;100.00
49843;BME280;55559;48.898;9.184;2023-05-08T07:24:48;98840.34;;;15.19;100.00
49843;BME280;55559;48.898;9.184;2023-05-08T07:27:16;98839.97;;;15.14;100.00
49843;BME280;55559;48.898;9.184;2023-05-08T07:29:43;98836.53;;;15.22;100.00
49843;BME280;55559;48.898;9.184;2023-05-08T07:32:13;98827.09;;;15.44;100.00
49843;BME280;55559;48.898;9.184;2023-05-08T07:34:41;98838.50;;;15.46;100.00
49843;BME280;55559;48.898;9.184;2023-05-08T07:37:09;98839.69;;;15.43;100.00
49843;BME280;55559;48.898;9.184;2023-05-08T07:39:37;98845.56;;;15.47;100.00
49843;BME280;55559;48.898;9.184;2023-05-08T07:42:05;98832.78;;;15.67;100.00
49843;BME280;55559;48.898;9.184;2023-05-08T07:44:32;98837.69;;;15.80;100.00
49843;BME280;55559;48.898;9.184;2023-05-08T07:47:03;98837.47;;;15.73;100.00
49843;BME280;55559;48.898;9.184;2023-05-08T07:49:32;98830.25;;;16.00;100.00
49843;BME280;55559;48.898;9.184;2023-05-08T07:52:00;98839.53;;;16.14;100.00
49843;BME280;55559;48.898;9.184;2023-05-08T07:54:27;98835.91;;;16.40;100.00
49843;BME280;55559;48.898;9.184;2023-05-08T07:56:54;98826.28;;;16.12;100.00
49843;BME280;55559;48.898;9.184;2023-05-08T07:59:22;98830.00;;;16.28;100.00
49843;BME280;55559;48.898;9.184;2023-05-08T08:01:51;98825.34;;;16.54;100.00
49843;BME280;55559;48.898;9.184;2023-05-08T08:04:18;98834.75;;;16.67;100.00
49843;BME280;55559;48.898;9.184;2023-05-08T08:06:54;98840.00;;;16.85;100.00
49843;BME280;55559;48.898;9.184;2023-05-08T08:09:21;98828.25;;;17.10;100.00
49843;BME280;55559;48.898;9.184;2023-05-08T08:11:49;98834.59;;;17.34;100.00
49843;BME280;55559;48.898;9.184;2023-05-08T08:14:17;98824.00;;;17.41;100.00
49843;BME280;55559;48.898;9.184;2023-05-08T08:16:44;98830.53;;;17.38;100.00
49843;BME280;55559;48.898;9.184;2023-05-08T08:19:11;98823.34;;;17.39;100.00
49843;BME280;55559;48.898;9.184;2023-05-08T08:21:41;98822.06;;;17.66;100.00
49843;BME280;55559;48.898;9.184;2023-05-08T08:24:11;98824.06;;;17.64;100.00
49843;BME280;55559;48.898;9.184;2023-05-08T08:26:38;98830.66;;;17.61;100.00
49843;BME280;55559;48.898;9.184;2023-05-08T08:29:06;98836.13;;;17.84;100.00
49843;BME280;55559;48.898;9.184;2023-05-08T08:31:34;98836.47;;;17.81;100.00
49843;BME280;55559;48.898;9.184;2023-05-08T08:34:01;98817.66;;;17.73;100.00
49843;BME280;55559;48.898;9.184;2023-05-08T08:36:29;98832.41;;;17.85;100.00
49843;BME280;55559;48.898;9.184;2023-05-08T08:38:57;98830.50;;;18.02;100.00
49843;BME280;55559;48.898;9.184;2023-05-08T08:41:27;98832.72;;;17.99;100.00
49843;BME280;55559;48.898;9.184;2023-05-08T08:43:54;98828.47;;;17.57;100.00
49843;BME280;55559;48.898;9.184;2023-05-08T08:46:25;98821.53;;;17.71;100.00
49843;BME280;55559;48.898;9.184;2023-05-08T08:48:57;98823.72;;;17.67;100.00
49843;BME280;55559;48.898;9.184;2023-05-08T08:51:26;98828.47;;;17.57;100.00
49843;BME280;55559;48.898;9.184;2023-05-08T08:54:08;98823.28;;;17.47;100.00
49843;BME280;55559;48.898;9.184;2023-05-08T08:56:39;98835.91;;;17.46;100.00
49843;BME280;55559;48.898;9.184;2023-05-08T08:59:08;98833.34;;;17.61;100.00
49843;BME280;55559;48.898;9.184;2023-05-08T09:01:38;98839.34;;;17.72;100.00
49843;BME280;55559;48.898;9.184;2023-05-08T09:04:06;98836.81;;;17.78;100.00
49843;BME280;55559;48.898;9.184;2023-05-08T09:06:35;98838.50;;;17.79;100.00
49843;BME280;55559;48.898;9.184;2023-05-08T09:09:03;98838.13;;;17.91;100.00
49843;BME280;55559;48.898;9.184;2023-05-08T09:11:30;98833.69;;;18.06;100.00
49843;BME280;55559;48.898;9.184;2023-05-08T09:13:59;98832.72;;;17.99;100.00
49843;BME280;55559;48.898;9.184;2023-05-08T09:16:28;98834.13;;;17.87;100.00
49843;BME280;55559;48.898;9.184;2023-05-08T09:18:55;98838.13;;;17.91;100.00
49843;BME280;55559;48.898;9.184;2023-05-08T09:21:23;98832.72;;;17.99;100.00
49843;BME280;55559;48.898;9.184;2023-05-08T09:23:55;98831.34;;;18.11;100.00
49843;BME280;55559;48.898;9.184;2023-05-08T09:26:29;98830.03;;;17.99;100.00
49843;BME280;55559;48.898;9.184;2023-05-08T09:29:09;98825.53;;;17.91;100.00
49843;BME280;55559;48.898;9.184;2023-05-08T09:31:37;98828.56;;;17.88;100.00
49843;BME280;55559;48.898;9.184;2023-05-08T09:34:05;98823.47;;;18.33;100.00
49843;BME280;55559;48.898;9.184;2023-05-08T09:36:33;98819.88;;;18.40;100.00
49843;BME280;55559;48.898;9.184;2023-05-08T09:39:01;98833.31;;;18.17;100.00
49843;BME280;55559;48.898;9.184;2023-05-08T09:41:29;98829.19;;;18.30;100.00
49843;BME280;55559;48.898;9.184;2023-05-08T09:44:00;98827.91;;;18.49;100.00
49843;BME280;55559;48.898;9.184;2023-05-08T09:46:30;98831.03;;;18.61;100.00
49843;BME280;55559;48.898;9.184;2023-05-08T09:48:59;98824.28;;;18.42;100.00
49843;BME280;55559;48.898;9.184;2023-05-08T09:51:29;98832.66;;;18.47;100.00
49843;BME280;55559;48.898;9.184;2023-05-08T09:53:58;98827.91;;;18.72;100.00
49843;BME280;55559;48.898;9.184;2023-05-08T09:56:31;98827.50;;;18.83;100.00
49843;BME280;55559;48.898;9.184;2023-05-08T09:58:59;98830.38;;;19.05;100.00
49843;BME280;55559;48.898;9.184;2023-05-08T10:01:29;98836.94;;;18.87;100.00
49843;BME280;55559;48.898;9.184;2023-05-08T10:03:58;98830.56;;;19.03;100.00
49843;BME280;55559;48.898;9.184;2023-05-08T10:06:26;98832.81;;;19.14;100.00
49843;BME280;55559;48.898;9.184;2023-05-08T10:09:08;98837.16;;;19.01;100.00
49843;BME280;55559;48.898;9.184;2023-05-08T10:11:49;98821.03;;;18.69;100.00
49843;BME280;55559;48.898;9.184;2023-05-08T10:14:17;98835.53;;;18.91;100.00
49843;BME280;55559;48.898;9.184;2023-05-08T10:16:48;98842.72;;;18.99;100.00
49843;BME280;55559;48.898;9.184;2023-05-08T10:19:17;98839.34;;;18.74;100.00
49843;BME280;55559;48.898;9.184;2023-05-08T10:21:46;98836.34;;;18.46;100.00
49843;BME280;55559;48.898;9.184;2023-05-08T10:24:16;98842.63;;;18.61;100.00
49843;BME280;55559;48.898;9.184;2023-05-08T10:26:51;98841.81;;;18.61;100.00
49843;BME280;55559;48.898;9.184;2023-05-08T10:29:26;98838.81;;;18.55;100.00
49843;BME280;55559;48.898;9.184;2023-05-08T10:31:57;98847.38;;;18.59;100.00
49843;BME280;55559;48.898;9.184;2023-05-08T10:34:30;98834.91;;;18.58;100.00
49843;BME280;55559;48.898;9.184;2023-05-08T10:36:58;98839.81;;;18.86;100.00
49843;BME280;55559;48.898;9.184;2023-05-08T10:39:27;98836.78;;;18.81;100.00
49843;BME280;55559;48.898;9.184;2023-05-08T10:41:57;98840.28;;;18.89;100.00
49843;BME280;55559;48.898;9.184;2023-05-08T10:44:26;98830.84;;;19.08;100.00
49843;BME280;55559;48.898;9.184;2023-05-08T10:47:07;98837.50;;;18.98;100.00
49843;BME280;55559;48.898;9.184;2023-05-08T10:49:42;98834.22;;;18.87;100.00
49843;BME280;55559;48.898;9.184;2023-05-08T10:52:17;98838.16;;;18.53;100.00
49843;BME280;55559;48.898;9.184;2023-05-08T10:55:15;98839.84;;;18.23;100.00
49843;BME280;55559;48.898;9.184;2023-05-08T10:58:10;98831.75;;;18.77;100.00
49843;BME280;55559;48.898;9.184;2023-05-08T11:01:14;98828.75;;;18.95;100.00
49843;BME280;55559;48.898;9.184;2023-05-08T11:03:47;98829.13;;;18.92;100.00
49843;BME280;55559;48.898;9.184;2023-05-08T11:06:43;98830.53;;;18.80;100.00
49843;BME280;55559;48.898;9.184;2023-05-08T11:09:18;98826.25;;;18.16;100.00
49843;BME280;55559;48.898;9.184;2023-05-08T11:11:55;98821.25;;;18.36;100.00
49843;BME280;55559;48.898;9.184;2023-05-08T11:14:25;98820.81;;;18.25;100.00
49843;BME280;55559;48.898;9.184;2023-05-08T11:17:05;98821.66;;;18.48;100.00
49843;BME280;55559;48.898;9.184;2023-05-08T11:19:54;98828.41;;;18.21;100.00
49843;BME280;55559;48.898;9.184;2023-05-08T11:22:27;98834.50;;;18.15;100.00
49843;BME280;55559;48.898;9.184;2023-05-08T11:24:57;98827.31;;;18.07;100.00
49843;BME280;55559;48.898;9.184;2023-05-08T11:30:38;98812.06;;;18.22;100.00
49843;BME280;55559;48.898;9.184;2023-05-08T11:33:14;98812.84;;;18.63;100.00
49843;BME280;55559;48.898;9.184;2023-05-08T11:35:54;98811.41;;;18.98;100.00
49843;BME280;55559;48.898;9.184;2023-05-08T11:38:29;98812.13;;;19.45;100.00
49843;BME280;55559;48.898;9.184;2023-05-08T11:41:03;98813.59;;;19.32;100.00
49843;BME280;55559;48.898;9.184;2023-05-08T11:44:11;98809.97;;;18.87;100.00
49843;BME280;55559;48.898;9.184;2023-05-08T11:46:48;98803.72;;;19.10;100.00
49843;BME280;55559;48.898;9.184;2023-05-08T11:49:17;98805.50;;;18.48;100.00
49843;BME280;55559;48.898;9.184;2023-05-08T11:51:48;98809.00;;;18.02;100.00
49843;BME280;55559;48.898;9.184;2023-05-08T11:54:29;98806.91;;;18.13;100.00
49843;BME280;55559;48.898;9.184;2023-05-08T11:56:57;98811.41;;;17.89;100.00
49843;BME280;55559;48.898;9.184;2023-05-08T11:59:24;98808.94;;;17.71;100.00
49843;BME280;55559;48.898;9.184;2023-05-08T12:01:52;98807.81;;;18.05;100.00
49843;BME280;55559;48.898;9.184;2023-05-08T12:04:19;98817.94;;;17.95;100.00
49843;BME280;55559;48.898;9.184;2023-05-08T12:06:48;98812.28;;;17.73;100.00
49843;BME280;55559;48.898;9.184;2023-05-08T12:09:18;98819.69;;;17.71;100.00
49843;BME280;55559;48.898;9.184;2023-05-08T12:11:55;98823.28;;;17.55;100.00
49843;BME280;55559;48.898;9.184;2023-05-08T12:14:26;98826.03;;;17.31;100.00
49843;BME280;55559;48.898;9.184;2023-05-08T12:16:53;98822.16;;;17.17;100.00
49843;BME280;55559;48.898;9.184;2023-05-08T12:19:22;98825.72;;;17.25;100.00
49843;BME280;55559;48.898;9.184;2023-05-08T12:21:51;98832.25;;;17.15;100.00
49843;BME280;55559;48.898;9.184;2023-05-08T12:24:19;98825.88;;;16.99;100.00
49843;BME280;55559;48.898;9.184;2023-05-08T12:26:48;98820.19;;;16.86;100.00
49843;BME280;55559;48.898;9.184;2023-05-08T12:29:18;98835.59;;;16.67;100.00
49843;BME280;55559;48.898;9.184;2023-05-08T12:31:46;98832.75;;;16.77;100.00
49843;BME280;55559;48.898;9.184;2023-05-08T12:34:15;98836.31;;;16.86;100.00
49843;BME280;55559;48.898;9.184;2023-05-08T12:36:42;98840.00;;;16.85;100.00
49843;BME280;55559;48.898;9.184;2023-05-08T12:39:15;98842.16;;;16.89;100.00
49843;BME280;55559;48.898;9.184;2023-05-08T12:41:47;98839.31;;;16.99;100.00
49843;BME280;55559;48.898;9.184;2023-05-08T12:44:18;98830.75;;;16.96;100.00
49843;BME280;55559;48.898;9.184;2023-05-08T12:46:48;98830.75;;;16.96;100.00
49843;BME280;55559;48.898;9.184;2023-05-08T12:49:28;98834.44;;;16.95;100.00
49843;BME280;55559;48.898;9.184;2023-05-08T12:52:05;98838.94;;;16.78;100.00
49843;BME280;55559;48.898;9.184;2023-05-08T12:54:37;98840.63;;;16.70;100.00
49843;BME280;55559;48.898;9.184;2023-05-08T12:57:08;98844.00;;;16.56;100.00
49843;BME280;55559;48.898;9.184;2023-05-08T12:59:36;98845.28;;;16.44;100.00
49843;BME280;55559;48.898;9.184;2023-05-08T13:02:04;98850.84;;;16.59;100.00
49843;BME280;55559;48.898;9.184;2023-05-08T13:04:45;98848.50;;;16.55;100.00
49843;BME280;55559;48.898;9.184;2023-05-08T13:07:13;98863.38;;;16.33;100.00
49843;BME280;55559;48.898;9.184;2023-05-08T13:09:56;98855.66;;;16.30;100.00
49843;BME280;55559;48.898;9.184;2023-05-08T13:12:24;98843.09;;;16.47;100.00
49843;BME280;55559;48.898;9.184;2023-05-08T13:14:51;98843.44;;;16.36;100.00